createdAt,value
2022-09-05T00:05:00.884Z,1021.91
2022-09-05T00:24:21.445Z,1021.89
2022-09-05T00:35:07.219Z,1021.99
2022-09-05T00:50:07.804Z,1022.18
2022-09-05T01:05:08.896Z,1022.33
2022-09-05T01:20:19.803Z,1022.40
2022-09-05T01:35:16.149Z,1022.42
2022-09-05T01:50:16.346Z,1022.50
2022-09-05T02:05:16.839Z,1022.53
2022-09-05T02:20:24.319Z,1022.55
2022-09-05T02:35:24.752Z,1022.61
2022-09-05T02:53:15.914Z,1022.61
2022-09-05T03:05:31.760Z,1022.57
2022-09-05T03:20:33.615Z,1022.50
2022-09-05T03:35:34.203Z,1022.49
2022-09-05T03:57:08.884Z,1022.41
2022-09-05T04:08:16.194Z,1022.36
2022-09-05T04:20:46.785Z,1022.39
2022-09-05T04:35:46.882Z,1022.59
2022-09-05T04:50:48.211Z,1022.67
2022-09-05T05:06:14.661Z,1022.76
2022-09-05T05:20:57.360Z,1022.86
2022-09-05T05:35:59.683Z,1022.90
2022-09-05T05:51:01.048Z,1022.89
2022-09-05T06:06:02.374Z,1023.01
2022-09-05T06:22:10.528Z,1023.05
2022-09-05T06:36:08.880Z,1023.22
2022-09-05T06:51:10.181Z,1023.34
2022-09-05T07:06:19.824Z,1023.48
2022-09-05T07:21:26.278Z,1023.46
2022-09-05T07:36:20.990Z,1023.50
2022-09-05T07:56:53.052Z,1023.49
2022-09-05T08:07:45.506Z,1023.40
2022-09-05T08:21:37.892Z,1023.49
2022-09-05T08:36:39.909Z,1023.40
2022-09-05T08:51:41.303Z,1023.21
2022-09-05T09:06:47.284Z,1023.14
2022-09-05T09:21:55.051Z,1023.12
2022-09-05T09:36:58.905Z,1023.11
2022-09-05T09:52:00.776Z,1023.04
2022-09-05T10:10:45.059Z,1022.92
2022-09-05T10:22:38.615Z,1022.85
2022-09-05T10:37:14.964Z,1022.74
2022-09-05T10:52:19.245Z,1022.65
2022-09-05T11:07:29.464Z,1022.38
2022-09-05T11:22:28.026Z,1022.29
2022-09-05T11:40:04.815Z,1022.24
2022-09-05T11:52:35.605Z,1022.15
2022-09-05T12:07:37.789Z,1022.08
2022-09-05T12:22:38.592Z,1022.07
2022-09-05T12:40:36.862Z,1021.89
2022-09-05T12:52:47.413Z,1021.74
2022-09-05T13:07:48.800Z,1021.66
2022-09-05T13:22:51.352Z,1021.54
2022-09-05T13:38:03.936Z,1021.45
2022-09-05T13:52:59.112Z,1021.32
2022-09-05T14:07:59.207Z,1021.17
2022-09-05T14:23:00.555Z,1021.02
2022-09-05T14:38:09.547Z,1020.97
2022-09-05T15:08:35.265Z,1020.87
2022-09-05T15:23:24.556Z,1020.72
2022-09-05T15:38:28.044Z,1020.56
2022-09-05T15:53:29.447Z,1020.58
2022-09-05T16:10:38.780Z,1020.63
2022-09-05T16:23:41.744Z,1020.58
2022-09-05T16:38:49.211Z,1020.54
2022-09-05T16:53:59.144Z,1020.56
2022-09-05T17:08:56.780Z,1020.48
2022-09-05T17:29:20.234Z,1020.49
2022-09-05T17:39:06.699Z,1020.52
2022-09-05T17:54:08.557Z,1020.63
2022-09-05T18:09:09.938Z,1020.73
2022-09-05T18:39:17.665Z,1020.86
2022-09-05T18:54:22.006Z,1020.92
2022-09-05T19:09:27.341Z,1020.80
2022-09-05T19:24:36.575Z,1020.91
2022-09-05T19:42:50.907Z,1020.81
2022-09-05T19:54:41.438Z,1020.88
2022-09-05T20:09:43.555Z,1020.79
2022-09-05T20:24:45.742Z,1020.79
2022-09-05T20:43:14.515Z,1020.85
2022-09-05T20:54:55.068Z,1020.77
2022-09-05T21:09:56.021Z,1020.71
2022-09-05T21:24:56.889Z,1020.58
2022-09-05T21:39:59.293Z,1020.66
2022-09-05T21:59:14.016Z,1020.60
2022-09-05T22:10:07.355Z,1020.59
2022-09-05T22:25:08.426Z,1020.50
2022-09-05T22:40:10.058Z,1020.43
2022-09-05T22:55:11.596Z,1020.44
2022-09-05T23:10:13.620Z,1020.41
2022-09-05T23:25:15.652Z,1020.40
2022-09-05T23:40:18.449Z,1020.28
2022-09-05T23:55:20.501Z,1020.30
